Norwegian Star — C6FR3 — position and weather

sailwx.info

Track history (hours):
 
Tides and Currents Weather Stations Pressure Air Temp Water Temp Dewpoint Dewpoint Depression Visibility Wind Speed Wind Dir Waves Ship Positions

Norwegian Star

Operator: Norwegian Cruise Line

Last reported at 2018-May-06 23:58 UTC. Time now 2018-May-23 05:22 UTC.
Position N 43°21' E 005°20'.
Warning: this ship's position is 16 days out of date.

Type: Passenger vessel. MMSI: 311082000.

Date/timePositionNaut miles runAvg speedWind from/ knotsBaromVisibWave heightAir tempDewpointWater temp
2018-May-06 23:58N 43°21' E 005°20'0 0.5
2018-May-06 23:28N 43°21' E 005°20'0 0.7
2018-May-06 22:59N 43°21' E 005°20'0 0.2
2018-May-06 22:30N 43°21' E 005°20'2 3.5
2018-May-06 22:00N 43°20' E 005°17'611.5
2018-May-06 21:30N 43°16' E 005°12'1019.7
2018-May-06 21:00N 43°08' E 005°06'1020.3
2018-May-06 20:30N 42°60' E 004°57'15019.5
2018-May-06 12:49N 41°18' E 002°29'619.9
2018-May-06 12:30N 41°16' E 002°21'816.1
2018-May-06 12:00N 41°18' E 002°10'3 6.4
2018-May-06 11:30N 41°21' E 002°10'0 0.7
2018-May-06 10:59N 41°21' E 002°11'0 0.0
2018-May-06 10:29N 41°21' E 002°11'0 0.0
2018-May-06 09:59N 41°21' E 002°11'0 0.0
2018-May-06 09:29N 41°21' E 002°11'0 0.0
2018-May-06 08:59N 41°21' E 002°11'0 0.0
2018-May-06 08:29N 41°21' E 002°11'0 0.0
2018-May-06 07:59N 41°21' E 002°11'0 0.0
2018-May-06 07:29N 41°21' E 002°11'0 0.0
2018-May-06 06:56N 41°21' E 002°11'0 0.0
2018-May-06 06:29N 41°21' E 002°11'0 0.0
2018-May-06 05:59N 41°21' E 002°11'0 0.0
2018-May-06 05:29N 41°21' E 002°11'0 0.0
2018-May-06 04:59N 41°21' E 002°11'0 0.0
2018-May-06 04:29N 41°21' E 002°11'0 0.0
2018-May-06 03:59N 41°21' E 002°11'0 0.0
2018-May-06 03:29N 41°21' E 002°11'0 0.0
2018-May-06 02:59N 41°21' E 002°11'0 0.0
2018-May-06 02:31N 41°21' E 002°11'2 3.7
2018-May-06 02:00N 41°19' E 002°10'4 8.9
2018-May-06 01:30N 41°15' E 002°12'815.1
2018-May-06 01:00N 41°08' E 002°07'713.9
2018-May-06 00:30N 41°02' E 002°03'713.9
2018-May-05 23:59N 40°56' E 001°59'17518.8
2018-May-05 14:41N 38°27' E 000°00'419.8
2018-May-05 14:31N 38°25' W 000°04'1019.9
2018-May-05 13:59N 38°21' W 000°16'1016.9
2018-May-05 13:24N 38°19' W 000°28'1 3.5
2018-May-05 13:00N 38°20' W 000°29'0 0.0
2018-May-05 12:18N 38°20' W 000°29'0 0.0
2018-May-05 12:00N 38°20' W 000°29'0 0.0
2018-May-05 11:30N 38°20' W 000°29'0 0.0
2018-May-05 11:00N 38°20' W 000°29'5 0.8
2018-May-05 04:24N 38°15' W 000°26'712.7
2018-May-05 03:53N 38°09' W 000°24'614.7
2018-May-05 03:30N 38°03' W 000°23'814.9
2018-May-05 02:56N 37°55' W 000°25'614.2
2018-May-05 02:30N 37°49' W 000°27'917.7
2018-May-05 02:00N 37°40' W 000°29'1019.5
2018-May-05 01:30N 37°31' W 000°34'1020.1
2018-May-05 01:00N 37°25' W 000°43'1020.4
2018-May-05 00:30N 37°18' W 000°53'1020.5
2018-May-05 00:00N 37°11' W 001°02'1120.3
2018-May-04 23:27N 37°03' W 001°12'187 7.9
2018-May-03 23:57N 36°11' W 004°55'613.4
2018-May-03 23:29N 36°07' W 005°01'816.4
2018-May-03 23:00N 36°01' W 005°08'714.9
2018-May-03 22:30N 36°00' W 005°17'815.2
2018-May-03 22:00N 35°57' W 005°26'915.1
2018-May-03 21:25N 35°55' W 005°37'714.8
2018-May-03 20:55N 35°55' W 005°46'196 8.2
2018-May-02 21:00N 37°00' W 009°36'4920.8
2018-May-02 18:38N 37°49' W 009°30'321.0
2018-May-02 18:31N 37°51' W 009°30'1020.4
2018-May-02 18:00N 38°02' W 009°29'1020.3
2018-May-02 17:31N 38°12' W 009°28'1020.1
2018-May-02 17:00N 38°22' W 009°26'1020.0
2018-May-02 16:30N 38°32' W 009°24'918.1
2018-May-02 16:00N 38°40' W 009°19'611.3
2018-May-02 15:29N 38°41' W 009°12'4 7.7
2018-May-02 15:00N 38°42' W 009°07'0 0.3
2018-May-02 14:30N 38°43' W 009°07'0 0.0
2018-May-02 14:00N 38°43' W 009°07'0 0.0
2018-May-02 13:30N 38°43' W 009°07'0 0.0
2018-May-02 13:00N 38°43' W 009°07'0 0.0
2018-May-02 12:30N 38°43' W 009°07'0 0.0
2018-May-02 12:00N 38°43' W 009°07'0 0.0
2018-May-02 11:30N 38°43' W 009°07'0 0.0
2018-May-02 11:00N 38°43' W 009°07'0 0.0
2018-May-02 10:30N 38°43' W 009°07'0 0.0
2018-May-02 10:00N 38°43' W 009°07'0 0.0
2018-May-02 09:30N 38°43' W 009°07'0 0.0
2018-May-02 09:00N 38°43' W 009°07'0 0.0
2018-May-02 08:30N 38°43' W 009°07'0 0.0
2018-May-02 08:00N 38°43' W 009°07'0 0.0
2018-May-02 07:30N 38°43' W 009°07'0 0.0
2018-May-02 07:00N 38°43' W 009°07'0 0.6
2018-May-02 06:30N 38°42' W 009°07'4 7.5
2018-May-02 06:00N 38°41' W 009°12'3 6.3
2018-May-02 05:31N 38°41' W 009°16'3 5.9
2018-May-02 05:01N 38°39' W 009°19'4 8.3
2018-May-02 04:30N 38°36' W 009°23'713.5
2018-May-02 04:00N 38°33' W 009°30'815.5
2018-May-02 03:30N 38°31' W 009°40'714.7
2018-May-02 03:00N 38°31' W 009°49'714.1
2018-May-02 02:30N 38°31' W 009°58'715.0
2018-May-02 02:00N 38°31' W 010°08'6014.9
2018-May-01 22:00N 38°24' W 011°24'17513.4 320 / 131019.0 15.0 15.0
2018-May-01 09:00N 38°12' W 015°06'14613.3 030 / 111023.0 15.0 15.0
2018-Apr-30 22:00N 38°06' W 018°12'13313.3 020 / 101024.0 14.0 16.0
2018-Apr-30 12:00N 37°54' W 021°00'12313.8 140 / 171021.0 14.0 16.0
2018-Apr-30 03:02N 37°46' W 023°36'013.1
2018-Apr-30 03:00N 37°46' W 023°36'713.4
2018-Apr-30 02:30N 37°46' W 023°45'713.7
2018-Apr-30 02:00N 37°45' W 023°53'713.5
2018-Apr-30 01:30N 37°45' W 024°02'713.3
2018-Apr-30 01:00N 37°44' W 024°10'713.7
2018-Apr-30 00:31N 37°44' W 024°19'713.5
2018-Apr-30 00:00N 37°43' W 024°27'713.2
2018-Apr-29 23:30N 37°43' W 024°36'714.5
2018-Apr-29 23:01N 37°42' W 024°45'815.8
2018-Apr-29 22:30N 37°42' W 024°55'815.9
2018-Apr-29 22:00N 37°41' W 025°05'183.4
2018-Apr-29 22:00N 37°42' W 025°06'714.5 270 / 121020.0 17.0 17.0
2018-Apr-29 21:30N 37°41' W 025°15'815.6
2018-Apr-29 21:00N 37°41' W 025°25'815.4
2018-Apr-29 20:30N 37°42' W 025°34'5 9.8
2018-Apr-29 20:00N 37°44' W 025°40'0 0.0
2018-Apr-29 19:28N 37°44' W 025°40'0 0.0
2018-Apr-29 18:58N 37°44' W 025°40'0 0.0
2018-Apr-29 18:28N 37°44' W 025°40'0 0.0
2018-Apr-29 17:58N 37°44' W 025°40'0 0.0
2018-Apr-29 17:28N 37°44' W 025°40'0 0.0
2018-Apr-29 16:58N 37°44' W 025°40'0 0.0
2018-Apr-29 16:28N 37°44' W 025°40'0 0.0
2018-Apr-29 15:58N 37°44' W 025°40'0 0.0
2018-Apr-29 15:28N 37°44' W 025°40'0 0.0
2018-Apr-29 14:58N 37°44' W 025°40'0 0.0
2018-Apr-29 14:28N 37°44' W 025°40'0 0.0
2018-Apr-29 13:58N 37°44' W 025°40'0 0.0
2018-Apr-29 13:28N 37°44' W 025°40'0 0.0
2018-Apr-29 12:58N 37°44' W 025°40'0 0.0
2018-Apr-29 12:28N 37°44' W 025°40'0 0.0
2018-Apr-29 11:58N 37°44' W 025°40'0 0.0
2018-Apr-29 11:28N 37°44' W 025°40'0 0.0
2018-Apr-29 10:58N 37°44' W 025°40'0 0.0
2018-Apr-29 10:28N 37°44' W 025°40'0 0.0
2018-Apr-29 09:58N 37°44' W 025°40'0 0.6
2018-Apr-29 09:30N 37°44' W 025°39'2 3.3
2018-Apr-29 09:00N 37°43' W 025°39'918.0
2018-Apr-29 08:30N 37°38' W 025°49'1020.0
2018-Apr-29 08:00N 37°36' W 026°01'1019.1
2018-Apr-29 07:30N 37°33' W 026°13'1019.3
2018-Apr-29 07:00N 37°31' W 026°25'1019.5
2018-Apr-29 06:30N 37°28' W 026°37'1019.7
2018-Apr-29 06:00N 37°26' W 026°49'1019.8
2018-Apr-29 05:31N 37°23' W 027°01'1019.5
2018-Apr-29 05:00N 37°21' W 027°12'8220.1
2018-Apr-29 00:55N 36°59' W 028°52'2123.1
2018-Apr-29 00:00N 36°54' W 029°18'23519.6 1031.0 16.0 20.0
2018-Apr-28 12:00N 35°54' W 034°00'24919.1 050 / 141035.0 18.0 21.0
2018-Apr-27 23:00N 34°48' W 038°54'23119.2 060 / 251033.0 19.0 21.0
2018-Apr-27 11:00N 33°48' W 043°24'5819.3 090 / 241029.0 21.0 21.0
2018-Apr-27 08:00N 33°30' W 044°30'15018.7 120 / 231024.0 5.4 20.5
2018-Apr-27 00:00N 32°54' W 047°24'   090 / 231025.0 21.0 22.0
Track history (hours):
 
Tides and Currents Weather Stations Pressure Air Temp Water Temp Dewpoint Dewpoint Depression Visibility Wind Speed Wind Dir Waves Ship Positions

Norwegian Star

Operator: Norwegian Cruise Line

Last reported at 2018-May-06 23:58 UTC. Time now 2018-May-23 05:22 UTC.
Position N 43°21' E 005°20'.
Warning: this ship's position is 16 days out of date.

Type: Passenger vessel. MMSI: 311082000.

Date/timePositionNaut miles runAvg speedWind from/ knotsBaromVisibWave heightAir tempDewpointWater temp
2018-May-06 23:58N 43°21' E 005°20'0 0.5
2018-May-06 23:28N 43°21' E 005°20'0 0.7
2018-May-06 22:59N 43°21' E 005°20'0 0.2
2018-May-06 22:30N 43°21' E 005°20'2 3.5
2018-May-06 22:00N 43°20' E 005°17'611.5
2018-May-06 21:30N 43°16' E 005°12'1019.7
2018-May-06 21:00N 43°08' E 005°06'1020.3
2018-May-06 20:30N 42°60' E 004°57'15019.5
2018-May-06 12:49N 41°18' E 002°29'619.9
2018-May-06 12:30N 41°16' E 002°21'816.1
2018-May-06 12:00N 41°18' E 002°10'3 6.4
2018-May-06 11:30N 41°21' E 002°10'0 0.7
2018-May-06 10:59N 41°21' E 002°11'0 0.0
2018-May-06 10:29N 41°21' E 002°11'0 0.0
2018-May-06 09:59N 41°21' E 002°11'0 0.0
2018-May-06 09:29N 41°21' E 002°11'0 0.0
2018-May-06 08:59N 41°21' E 002°11'0 0.0
2018-May-06 08:29N 41°21' E 002°11'0 0.0
2018-May-06 07:59N 41°21' E 002°11'0 0.0
2018-May-06 07:29N 41°21' E 002°11'0 0.0
2018-May-06 06:56N 41°21' E 002°11'0 0.0
2018-May-06 06:29N 41°21' E 002°11'0 0.0
2018-May-06 05:59N 41°21' E 002°11'0 0.0
2018-May-06 05:29N 41°21' E 002°11'0 0.0
2018-May-06 04:59N 41°21' E 002°11'0 0.0
2018-May-06 04:29N 41°21' E 002°11'0 0.0
2018-May-06 03:59N 41°21' E 002°11'0 0.0
2018-May-06 03:29N 41°21' E 002°11'0 0.0
2018-May-06 02:59N 41°21' E 002°11'0 0.0
2018-May-06 02:31N 41°21' E 002°11'2 3.7
2018-May-06 02:00N 41°19' E 002°10'4 8.9
2018-May-06 01:30N 41°15' E 002°12'815.1
2018-May-06 01:00N 41°08' E 002°07'713.9
2018-May-06 00:30N 41°02' E 002°03'713.9
2018-May-05 23:59N 40°56' E 001°59'17518.8
2018-May-05 14:41N 38°27' E 000°00'419.8
2018-May-05 14:31N 38°25' W 000°04'1019.9
2018-May-05 13:59N 38°21' W 000°16'1016.9
2018-May-05 13:24N 38°19' W 000°28'1 3.5
2018-May-05 13:00N 38°20' W 000°29'0 0.0
2018-May-05 12:18N 38°20' W 000°29'0 0.0
2018-May-05 12:00N 38°20' W 000°29'0 0.0
2018-May-05 11:30N 38°20' W 000°29'0 0.0
2018-May-05 11:00N 38°20' W 000°29'5 0.8
2018-May-05 04:24N 38°15' W 000°26'712.7
2018-May-05 03:53N 38°09' W 000°24'614.7
2018-May-05 03:30N 38°03' W 000°23'814.9
2018-May-05 02:56N 37°55' W 000°25'614.2
2018-May-05 02:30N 37°49' W 000°27'917.7
2018-May-05 02:00N 37°40' W 000°29'1019.5
2018-May-05 01:30N 37°31' W 000°34'1020.1
2018-May-05 01:00N 37°25' W 000°43'1020.4
2018-May-05 00:30N 37°18' W 000°53'1020.5
2018-May-05 00:00N 37°11' W 001°02'1120.3
2018-May-04 23:27N 37°03' W 001°12'187 7.9
2018-May-03 23:57N 36°11' W 004°55'613.4
2018-May-03 23:29N 36°07' W 005°01'816.4
2018-May-03 23:00N 36°01' W 005°08'714.9
2018-May-03 22:30N 36°00' W 005°17'815.2
2018-May-03 22:00N 35°57' W 005°26'915.1
2018-May-03 21:25N 35°55' W 005°37'714.8
2018-May-03 20:55N 35°55' W 005°46'196 8.2
2018-May-02 21:00N 37°00' W 009°36'4920.8
2018-May-02 18:38N 37°49' W 009°30'321.0
2018-May-02 18:31N 37°51' W 009°30'1020.4
2018-May-02 18:00N 38°02' W 009°29'1020.3
2018-May-02 17:31N 38°12' W 009°28'1020.1
2018-May-02 17:00N 38°22' W 009°26'1020.0
2018-May-02 16:30N 38°32' W 009°24'918.1
2018-May-02 16:00N 38°40' W 009°19'611.3
2018-May-02 15:29N 38°41' W 009°12'4 7.7
2018-May-02 15:00N 38°42' W 009°07'0 0.3
2018-May-02 14:30N 38°43' W 009°07'0 0.0
2018-May-02 14:00N 38°43' W 009°07'0 0.0
2018-May-02 13:30N 38°43' W 009°07'0 0.0
2018-May-02 13:00N 38°43' W 009°07'0 0.0
2018-May-02 12:30N 38°43' W 009°07'0 0.0
2018-May-02 12:00N 38°43' W 009°07'0 0.0
2018-May-02 11:30N 38°43' W 009°07'0 0.0
2018-May-02 11:00N 38°43' W 009°07'0 0.0
2018-May-02 10:30N 38°43' W 009°07'0 0.0
2018-May-02 10:00N 38°43' W 009°07'0 0.0
2018-May-02 09:30N 38°43' W 009°07'0 0.0
2018-May-02 09:00N 38°43' W 009°07'0 0.0
2018-May-02 08:30N 38°43' W 009°07'0 0.0
2018-May-02 08:00N 38°43' W 009°07'0 0.0
2018-May-02 07:30N 38°43' W 009°07'0 0.0
2018-May-02 07:00N 38°43' W 009°07'0 0.6
2018-May-02 06:30N 38°42' W 009°07'4 7.5
2018-May-02 06:00N 38°41' W 009°12'3 6.3
2018-May-02 05:31N 38°41' W 009°16'3 5.9
2018-May-02 05:01N 38°39' W 009°19'4 8.3
2018-May-02 04:30N 38°36' W 009°23'713.5
2018-May-02 04:00N 38°33' W 009°30'815.5
2018-May-02 03:30N 38°31' W 009°40'714.7
2018-May-02 03:00N 38°31' W 009°49'714.1
2018-May-02 02:30N 38°31' W 009°58'715.0
2018-May-02 02:00N 38°31' W 010°08'6014.9
2018-May-01 22:00N 38°24' W 011°24'17513.4 320 / 131019.0 15.0 15.0
2018-May-01 09:00N 38°12' W 015°06'14613.3 030 / 111023.0 15.0 15.0
2018-Apr-30 22:00N 38°06' W 018°12'13313.3 020 / 101024.0 14.0 16.0
2018-Apr-30 12:00N 37°54' W 021°00'12313.8 140 / 171021.0 14.0 16.0
2018-Apr-30 03:02N 37°46' W 023°36'013.1
2018-Apr-30 03:00N 37°46' W 023°36'713.4
2018-Apr-30 02:30N 37°46' W 023°45'713.7
2018-Apr-30 02:00N 37°45' W 023°53'713.5
2018-Apr-30 01:30N 37°45' W 024°02'713.3
2018-Apr-30 01:00N 37°44' W 024°10'713.7
2018-Apr-30 00:31N 37°44' W 024°19'713.5
2018-Apr-30 00:00N 37°43' W 024°27'713.2
2018-Apr-29 23:30N 37°43' W 024°36'714.5
2018-Apr-29 23:01N 37°42' W 024°45'815.8
2018-Apr-29 22:30N 37°42' W 024°55'815.9
2018-Apr-29 22:00N 37°41' W 025°05'183.4
2018-Apr-29 22:00N 37°42' W 025°06'714.5 270 / 121020.0 17.0 17.0
2018-Apr-29 21:30N 37°41' W 025°15'815.6
2018-Apr-29 21:00N 37°41' W 025°25'815.4
2018-Apr-29 20:30N 37°42' W 025°34'5 9.8
2018-Apr-29 20:00N 37°44' W 025°40'0 0.0
2018-Apr-29 19:28N 37°44' W 025°40'0 0.0
2018-Apr-29 18:58N 37°44' W 025°40'0 0.0
2018-Apr-29 18:28N 37°44' W 025°40'0 0.0
2018-Apr-29 17:58N 37°44' W 025°40'0 0.0
2018-Apr-29 17:28N 37°44' W 025°40'0 0.0
2018-Apr-29 16:58N 37°44' W 025°40'0 0.0
2018-Apr-29 16:28N 37°44' W 025°40'0 0.0
2018-Apr-29 15:58N 37°44' W 025°40'0 0.0
2018-Apr-29 15:28N 37°44' W 025°40'0 0.0
2018-Apr-29 14:58N 37°44' W 025°40'0 0.0
2018-Apr-29 14:28N 37°44' W 025°40'0 0.0
2018-Apr-29 13:58N 37°44' W 025°40'0 0.0
2018-Apr-29 13:28N 37°44' W 025°40'0 0.0
2018-Apr-29 12:58N 37°44' W 025°40'0 0.0
2018-Apr-29 12:28N 37°44' W 025°40'0 0.0
2018-Apr-29 11:58N 37°44' W 025°40'0 0.0
2018-Apr-29 11:28N 37°44' W 025°40'0 0.0
2018-Apr-29 10:58N 37°44' W 025°40'0 0.0
2018-Apr-29 10:28N 37°44' W 025°40'0 0.0
2018-Apr-29 09:58N 37°44' W 025°40'0 0.6
2018-Apr-29 09:30N 37°44' W 025°39'2 3.3
2018-Apr-29 09:00N 37°43' W 025°39'918.0
2018-Apr-29 08:30N 37°38' W 025°49'1020.0
2018-Apr-29 08:00N 37°36' W 026°01'1019.1
2018-Apr-29 07:30N 37°33' W 026°13'1019.3
2018-Apr-29 07:00N 37°31' W 026°25'1019.5
2018-Apr-29 06:30N 37°28' W 026°37'1019.7
2018-Apr-29 06:00N 37°26' W 026°49'1019.8
2018-Apr-29 05:31N 37°23' W 027°01'1019.5
2018-Apr-29 05:00N 37°21' W 027°12'8220.1
2018-Apr-29 00:55N 36°59' W 028°52'2123.1
2018-Apr-29 00:00N 36°54' W 029°18'23519.6 1031.0 16.0 20.0
2018-Apr-28 12:00N 35°54' W 034°00'24919.1 050 / 141035.0 18.0 21.0
2018-Apr-27 23:00N 34°48' W 038°54'23119.2 060 / 251033.0 19.0 21.0
2018-Apr-27 11:00N 33°48' W 043°24'5819.3 090 / 241029.0 21.0 21.0
2018-Apr-27 08:00N 33°30' W 044°30'15018.7 120 / 231024.0 5.4 20.5
2018-Apr-27 00:00N 32°54' W 047°24'   090 / 231025.0 21.0 22.0

Dump ship's entire track history